createdAt,value
2018-04-06T00:00:26.798Z,44.48
2018-04-06T00:01:27.268Z,44.45
2018-04-06T00:02:27.781Z,44.38
2018-04-06T00:03:28.212Z,44.35
2018-04-06T00:04:28.683Z,44.38
2018-04-06T00:05:29.155Z,44.38
2018-04-06T00:06:29.628Z,44.35
2018-04-06T00:07:30.099Z,44.35
2018-04-06T00:08:30.569Z,44.34
2018-04-06T00:09:31.042Z,44.27
2018-04-06T00:10:31.512Z,44.27
2018-04-06T00:11:31.988Z,44.23
2018-04-06T00:12:32.458Z,44.26
2018-04-06T00:13:32.931Z,44.28
2018-04-06T00:14:33.401Z,44.25
2018-04-06T00:15:33.872Z,44.27
2018-04-06T00:16:34.344Z,44.26
2018-04-06T00:17:34.817Z,44.28
2018-04-06T00:18:35.287Z,44.22
2018-04-06T00:19:35.760Z,44.22
2018-04-06T00:20:36.231Z,44.22
2018-04-06T00:21:36.704Z,44.23
2018-04-06T00:22:37.176Z,44.23
2018-04-06T00:23:37.647Z,44.19
2018-04-06T00:24:38.121Z,44.15
2018-04-06T00:25:38.591Z,44.14
2018-04-06T00:26:39.062Z,44.24
2018-04-06T00:27:39.535Z,44.28
2018-04-06T00:28:40.005Z,44.30
2018-04-06T00:29:40.477Z,44.26
2018-04-06T00:30:40.949Z,44.25
2018-04-06T00:31:41.422Z,44.24
2018-04-06T00:32:41.896Z,44.22
2018-04-06T00:33:42.366Z,44.23
2018-04-06T00:34:42.838Z,44.25
2018-04-06T00:35:43.309Z,44.23
2018-04-06T00:36:43.780Z,44.20
2018-04-06T00:37:44.252Z,44.25
2018-04-06T00:38:44.724Z,44.27
2018-04-06T00:39:45.194Z,44.25
2018-04-06T00:40:45.665Z,44.26
2018-04-06T00:41:46.140Z,44.23
2018-04-06T00:42:46.612Z,44.23
2018-04-06T00:43:47.083Z,44.27
2018-04-06T00:44:47.556Z,44.34
2018-04-06T00:45:48.025Z,44.34
2018-04-06T00:46:48.505Z,44.36
2018-04-06T00:47:48.968Z,44.37
2018-04-06T00:48:49.438Z,44.36
2018-04-06T00:49:49.911Z,44.30
2018-04-06T00:50:50.383Z,44.29
2018-04-06T00:51:50.855Z,44.24
2018-04-06T00:52:51.327Z,44.24
2018-04-06T00:53:51.798Z,44.24
2018-04-06T00:54:52.270Z,44.20
2018-04-06T00:55:52.744Z,44.18
2018-04-06T00:56:53.213Z,44.21
2018-04-06T00:57:53.685Z,44.20
2018-04-06T00:58:54.208Z,44.22
2018-04-06T00:59:54.632Z,44.26
2018-04-06T01:00:55.102Z,44.28
2018-04-06T01:01:55.572Z,44.30
2018-04-06T01:02:56.042Z,44.32
2018-04-06T01:03:56.515Z,44.34
2018-04-06T01:04:56.988Z,44.37
2018-04-06T01:05:57.459Z,44.37
2018-04-06T01:06:57.934Z,44.41
2018-04-06T01:07:58.402Z,44.43
2018-04-06T01:08:58.874Z,44.46
2018-04-06T01:09:59.345Z,44.45
2018-04-06T01:10:59.816Z,44.46
2018-04-06T01:12:00.292Z,44.40
2018-04-06T01:13:00.760Z,44.42
2018-04-06T01:14:01.231Z,44.42
2018-04-06T01:15:01.705Z,44.36
2018-04-06T01:16:02.175Z,44.25
2018-04-06T01:17:02.646Z,44.21
2018-04-06T01:18:03.117Z,44.17
2018-04-06T01:19:03.589Z,44.13
2018-04-06T01:20:04.063Z,44.17
2018-04-06T01:21:04.532Z,44.19
2018-04-06T01:22:05.005Z,44.24
2018-04-06T01:23:05.478Z,44.26
2018-04-06T01:24:05.946Z,44.33
2018-04-06T01:25:06.417Z,44.39
2018-04-06T01:26:06.889Z,44.43
2018-04-06T01:27:07.361Z,44.44
2018-04-06T01:28:07.837Z,44.46
2018-04-06T01:29:08.303Z,44.41
2018-04-06T01:30:08.776Z,44.35
2018-04-06T01:31:09.248Z,44.33
2018-04-06T01:32:09.721Z,44.33
2018-04-06T01:33:10.190Z,44.30
2018-04-06T01:34:10.661Z,44.32
2018-04-06T01:35:11.138Z,44.36
2018-04-06T01:36:11.604Z,44.35
2018-04-06T01:37:12.074Z,44.38
2018-04-06T01:38:12.549Z,44.35
2018-04-06T01:39:13.067Z,44.33
2018-04-06T01:40:13.491Z,44.38
2018-04-06T01:41:13.961Z,44.37
2018-04-06T01:42:14.435Z,44.40
2018-04-06T01:43:14.904Z,44.47
2018-04-06T01:44:15.379Z,44.46
2018-04-06T01:45:15.846Z,44.46
2018-04-06T01:46:16.318Z,44.47
2018-04-06T01:47:16.792Z,44.41
2018-04-06T01:48:17.259Z,44.34
2018-04-06T01:49:17.785Z,44.24
2018-04-06T01:50:18.202Z,44.25
2018-04-06T01:51:18.674Z,44.27
2018-04-06T01:52:19.151Z,44.21
2018-04-06T01:53:19.617Z,44.24
2018-04-06T01:54:20.087Z,44.27
2018-04-06T01:55:20.563Z,44.27
2018-04-06T01:56:21.032Z,44.23
2018-04-06T01:57:21.501Z,44.24
2018-04-06T01:58:21.975Z,44.28
2018-04-06T01:59:22.498Z,44.30
2018-04-06T02:00:22.918Z,44.31
2018-04-06T02:01:23.386Z,44.33
2018-04-06T02:02:23.858Z,44.32
2018-04-06T02:03:24.331Z,44.25
2018-04-06T02:04:24.802Z,44.14
2018-04-06T02:05:25.272Z,44.05
2018-04-06T02:06:25.747Z,43.92
2018-04-06T02:07:26.215Z,43.80
2018-04-06T02:08:26.689Z,43.80
2018-04-06T02:09:27.158Z,43.77
2018-04-06T02:10:27.629Z,43.66
2018-04-06T02:11:28.103Z,43.68
2018-04-06T02:12:28.577Z,43.66
2018-04-06T02:13:29.042Z,43.65
2018-04-06T02:14:29.512Z,43.57
2018-04-06T02:15:29.986Z,43.54
2018-04-06T02:16:30.457Z,43.50
2018-04-06T02:17:30.928Z,43.52
2018-04-06T02:18:31.400Z,43.58
2018-04-06T02:19:31.921Z,43.61
2018-04-06T02:20:32.343Z,43.58
2018-04-06T02:21:32.814Z,43.53
2018-04-06T02:22:33.288Z,43.54
2018-04-06T02:23:33.755Z,43.58
2018-04-06T02:24:34.307Z,43.55
2018-04-06T02:25:34.698Z,43.53
2018-04-06T02:26:35.174Z,43.55
2018-04-06T02:27:35.640Z,43.61
2018-04-06T02:28:36.113Z,43.64
2018-04-06T02:29:36.633Z,43.66
2018-04-06T02:30:37.055Z,43.56
2018-04-06T02:31:37.524Z,43.53
2018-04-06T02:32:38.002Z,43.44
2018-04-06T02:33:38.467Z,43.47
2018-04-06T02:34:38.938Z,43.52
2018-04-06T02:35:39.413Z,43.54
2018-04-06T02:36:39.882Z,43.47
2018-04-06T02:37:40.355Z,43.47
2018-04-06T02:38:40.824Z,43.44
2018-04-06T02:39:41.344Z,43.41
2018-04-06T02:40:41.769Z,43.36
2018-04-06T02:41:42.236Z,43.35
2018-04-06T02:42:42.708Z,43.39
2018-04-06T02:43:43.187Z,43.43
2018-04-06T02:44:43.704Z,43.46
2018-04-06T02:45:44.121Z,43.45
2018-04-06T02:46:44.594Z,43.49
2018-04-06T02:47:45.060Z,43.59
2018-04-06T02:48:45.536Z,43.70
2018-04-06T02:49:46.066Z,43.77
2018-04-06T02:50:46.476Z,43.86
2018-04-06T02:51:46.949Z,43.85
2018-04-06T02:52:47.422Z,43.81
2018-04-06T02:53:47.889Z,43.79
2018-04-06T02:54:48.361Z,43.81
2018-04-06T02:55:48.831Z,43.79
2018-04-06T02:56:49.303Z,43.73
2018-04-06T02:57:49.774Z,43.70
2018-04-06T02:58:50.245Z,43.69
2018-04-06T02:59:50.769Z,43.68
2018-04-06T03:00:51.188Z,43.72
2018-04-06T03:02:52.133Z,43.80
2018-04-06T03:03:52.602Z,43.90
2018-04-06T03:04:53.083Z,43.92
2018-04-06T03:05:53.541Z,43.99
2018-04-06T03:06:54.218Z,44.06
2018-04-06T03:07:54.491Z,44.11
2018-04-06T03:08:54.960Z,44.06
2018-04-06T03:09:55.482Z,44.03
2018-04-06T03:10:55.897Z,44.02
2018-04-06T03:11:56.373Z,43.92
2018-04-06T03:12:56.847Z,43.88
2018-04-06T03:13:57.312Z,43.92
2018-04-06T03:15:58.251Z,43.90
2018-04-06T03:17:59.202Z,43.79
2018-04-06T03:20:00.191Z,43.88
2018-04-06T03:21:00.614Z,43.89
2018-04-06T03:22:01.087Z,43.96
2018-04-06T03:24:02.017Z,44.07
2018-04-06T03:26:02.971Z,44.11
2018-04-06T03:27:03.435Z,44.10
2018-04-06T03:28:03.907Z,44.06
2018-04-06T03:29:04.575Z,44.01
2018-04-06T03:30:04.900Z,44.04
2018-04-06T03:31:05.320Z,44.03
2018-04-06T03:32:05.794Z,44.05
2018-04-06T03:33:06.263Z,43.99
2018-04-06T03:34:06.733Z,43.89
2018-04-06T03:35:07.203Z,43.88
2018-04-06T03:38:08.617Z,43.81
2018-04-06T03:39:09.087Z,43.80
2018-04-06T03:40:09.609Z,43.79
2018-04-06T03:41:10.023Z,43.80
2018-04-06T03:42:10.700Z,43.81
2018-04-06T03:44:11.439Z,43.80
2018-04-06T03:45:11.910Z,43.80
2018-04-06T03:46:12.387Z,43.84
2018-04-06T03:47:12.851Z,43.91
2018-04-06T03:48:13.316Z,43.98
2018-04-06T03:50:14.314Z,44.06
2018-04-06T03:51:14.733Z,44.16
2018-04-06T03:53:15.678Z,44.16
2018-04-06T03:54:16.147Z,44.14
2018-04-06T03:56:17.089Z,44.08
2018-04-06T03:57:17.756Z,44.03
2018-04-06T03:58:18.028Z,44.04
2018-04-06T03:59:18.500Z,44.04
2018-04-06T04:00:19.021Z,44.06
2018-04-06T04:01:19.648Z,44.11
2018-04-06T04:02:20.114Z,44.16
2018-04-06T04:03:20.583Z,44.13
2018-04-06T04:04:22.267Z,44.05
2018-04-06T04:05:21.374Z,44.09
2018-04-06T04:06:21.989Z,44.16
2018-04-06T04:07:22.468Z,44.19
2018-04-06T04:08:22.942Z,44.25
2018-04-06T04:09:23.210Z,44.24
2018-04-06T04:10:24.486Z,44.24
2018-04-06T04:12:24.617Z,44.32
2018-04-06T04:13:25.087Z,44.35
2018-04-06T04:14:25.558Z,44.41
2018-04-06T04:15:26.026Z,44.44
2018-04-06T04:16:26.498Z,44.48
2018-04-06T04:17:27.173Z,44.44
2018-04-06T04:18:30.470Z,44.41
2018-04-06T04:19:27.909Z,44.43
2018-04-06T04:26:31.406Z,44.52
2018-04-06T04:27:31.672Z,44.57
2018-04-06T04:28:32.549Z,44.58
2018-04-06T04:29:32.614Z,44.60
2018-04-06T04:30:33.337Z,44.60
2018-04-06T04:32:34.027Z,44.68
2018-04-06T04:33:34.498Z,44.70
2018-04-06T04:34:35.370Z,44.67
2018-04-06T04:38:38.268Z,44.61
2018-04-06T04:39:37.725Z,44.61
2018-04-06T04:40:38.043Z,44.60
2018-04-06T04:41:39.660Z,44.56
2018-04-06T04:43:39.197Z,44.51
2018-04-06T04:44:39.672Z,44.51
2018-04-06T04:45:51.522Z,44.46
2018-04-06T04:48:41.550Z,44.47
2018-04-06T04:50:42.698Z,44.49
2018-04-06T04:51:44.785Z,44.47
2018-04-06T04:52:45.260Z,44.43
2018-04-06T04:54:44.580Z,44.36
2018-04-06T04:55:45.103Z,44.40
2018-04-06T04:56:46.735Z,44.36
2018-04-06T04:57:45.792Z,44.38
2018-04-06T05:01:47.674Z,44.35
2018-04-06T05:02:48.345Z,44.37
2018-04-06T05:04:49.085Z,44.38
2018-04-06T05:05:51.174Z,44.45
2018-04-06T05:06:50.231Z,44.41
2018-04-06T05:07:51.687Z,44.45
2018-04-06T05:10:04.583Z,44.46
2018-04-06T05:10:57.186Z,44.51
2018-04-06T05:14:54.401Z,44.61
2018-04-06T05:23:59.848Z,45.18
2018-04-06T05:24:59.309Z,45.23
2018-04-06T05:28:00.717Z,45.35
2018-04-06T05:30:01.257Z,45.41
2018-04-06T05:33:08.943Z,45.49
2018-04-06T05:37:04.811Z,45.75
2018-04-06T05:55:27.623Z,46.35
2018-04-06T05:56:28.294Z,46.37
2018-04-06T05:58:41.033Z,46.45
2018-04-06T06:00:29.435Z,46.48
2018-04-06T06:02:30.180Z,46.47
2018-04-06T06:03:30.847Z,46.46
2018-04-06T06:05:31.790Z,46.50
2018-04-06T06:06:32.262Z,46.52
2018-04-06T06:12:34.949Z,46.57
2018-04-06T06:13:35.561Z,46.55
2018-04-06T06:17:37.849Z,46.64
2018-04-06T06:19:38.195Z,46.67
2018-04-06T06:20:38.863Z,46.70
2018-04-06T06:22:39.855Z,46.73
2018-04-06T06:23:40.068Z,46.71
2018-04-06T06:25:41.219Z,46.74
2018-04-06T06:26:42.894Z,46.74
2018-04-06T06:28:45.464Z,46.80
2018-04-06T06:29:43.105Z,46.76
2018-04-06T06:30:57.326Z,46.76
2018-04-06T06:31:45.463Z,46.76
2018-04-06T06:32:48.211Z,46.74
2018-04-06T06:35:46.131Z,46.72
2018-04-06T06:37:46.726Z,46.79
2018-04-06T06:38:47.351Z,46.77
2018-04-06T06:39:48.812Z,46.79
2018-04-06T06:42:50.778Z,46.77
2018-04-06T06:43:50.520Z,46.74
2018-04-06T06:44:49.977Z,46.76
2018-04-06T06:45:51.856Z,46.75
2018-04-06T06:49:52.748Z,46.78
2018-04-06T06:52:54.364Z,46.77
2018-04-06T06:53:54.970Z,46.74
2018-04-06T07:07:00.778Z,46.93
2018-04-06T07:10:05.633Z,47.02
2018-04-06T07:15:06.368Z,47.28
2018-04-06T07:16:06.433Z,47.27
2018-04-06T07:20:08.077Z,47.44
2018-04-06T08:04:30.136Z,51.03
2018-04-06T08:14:10.782Z,54.07
2018-04-06T08:32:33.872Z,53.25
2018-04-06T08:43:37.515Z,51.85
2018-04-06T08:45:39.205Z,51.70
2018-04-06T08:49:43.132Z,51.30
2018-04-06T09:39:01.710Z,57.07
2018-04-06T09:46:17.287Z,55.99
2018-04-06T09:55:07.608Z,54.16
2018-04-06T10:41:05.138Z,56.65
2018-04-06T10:42:00.733Z,56.88
2018-04-06T10:52:33.431Z,58.60
2018-04-06T11:01:40.634Z,57.23
2018-04-06T11:13:10.724Z,55.56
2018-04-06T11:14:14.782Z,55.46
2018-04-06T11:16:18.037Z,55.37
2018-04-06T11:17:17.966Z,55.26
2018-04-06T11:19:16.015Z,55.13
2018-04-06T11:57:16.534Z,62.60
2018-04-06T12:02:31.627Z,62.41
2018-04-06T12:12:04.341Z,60.56
2018-04-06T12:20:08.525Z,58.58
2018-04-06T12:31:44.411Z,55.59
2018-04-06T13:25:48.813Z,57.84
2018-04-06T14:01:23.709Z,58.54
2018-04-06T14:03:12.845Z,59.01
2018-04-06T14:16:26.973Z,61.69
2018-04-06T14:18:42.263Z,62.16
2018-04-06T14:35:12.198Z,60.98
2018-04-06T21:11:04.513Z,45.91
2018-04-06T21:16:08.112Z,45.50
2018-04-06T21:17:20.836Z,45.31
2018-04-06T21:34:15.438Z,43.07
2018-04-06T21:46:24.477Z,44.43
2018-04-06T21:48:22.276Z,45.06
2018-04-06T21:49:25.897Z,45.35
2018-04-06T21:51:24.261Z,45.99
2018-04-06T21:53:26.552Z,46.47
2018-04-06T22:01:29.938Z,46.62
2018-04-06T22:02:29.975Z,46.61
2018-04-06T22:08:31.531Z,45.65
2018-04-06T22:09:32.280Z,45.43
2018-04-06T22:10:33.045Z,45.25
2018-04-06T22:11:34.622Z,45.07
2018-04-06T22:13:33.862Z,44.67
2018-04-06T22:15:38.209Z,44.31
2018-04-06T22:17:36.161Z,44.03
2018-04-06T22:19:36.786Z,43.67
2018-04-06T22:30:45.620Z,42.43
2018-04-06T22:35:44.038Z,42.25
2018-04-06T22:38:45.806Z,42.01
2018-04-06T22:44:50.454Z,41.39
2018-04-06T22:49:51.004Z,41.26
2018-04-06T22:51:51.995Z,41.23
2018-04-06T22:52:53.635Z,41.27
2018-04-06T22:54:53.165Z,41.16
2018-04-06T22:55:54.847Z,41.10
2018-04-06T22:56:53.909Z,40.99
2018-04-06T23:00:56.207Z,40.79
2018-04-06T23:01:56.325Z,40.78
2018-04-06T23:02:56.743Z,40.62
2018-04-06T23:03:57.222Z,40.58
2018-04-06T23:05:58.374Z,40.44
2018-04-06T23:09:00.196Z,40.32
2018-04-06T23:10:00.400Z,40.24
2018-04-06T23:11:00.940Z,40.22
2018-04-06T23:12:01.011Z,40.21
2018-04-06T23:14:01.953Z,40.05
2018-04-06T23:21:05.477Z,39.92
2018-04-06T23:23:07.862Z,40.00
2018-04-06T23:27:08.924Z,39.97
2018-04-06T23:31:56.040Z,40.09
2018-04-06T23:34:09.824Z,40.14
2018-04-06T23:35:57.797Z,40.01
2018-04-06T23:37:00.494Z,39.95
2018-04-06T23:38:59.624Z,39.86
2018-04-06T23:41:00.101Z,39.84
2018-04-06T23:45:02.272Z,39.69
2018-04-06T23:46:03.546Z,39.64
2018-04-06T23:48:03.873Z,39.51
2018-04-06T23:52:06.126Z,39.51
2018-04-06T23:58:08.628Z,39.51
